CheckWX is a tool to help pilots better visualize weather data.  It is not intended as a substitute for an official pre-flight weather briefing.

11:52:29 UTC

WSSS METAR
Singapore Changi International Airport
Singapore, Singapore
Current

22 mins ago

WSSS 121130Z VRB02KT 5000 HZ FEW018 BKN270 28/24 Q1009 NOSIG
Observed
Nov-12 @ 11:30 UTC
Wind
  • Variable at 2 KTS
Visibility
5,000 meters
Flight Rules
MVFR
Conditions
Haze
Cloud Levels
  • Few at 1,800' AGL
  • Broken at 27,000' AGL
Temperature
28°C / 82°F
Dewpoint
24°C / 75°F
Heat Index
32°C / 89°F
Humidity
79%
Altimeter
29.79" Hg
Pressure
1008.92 hPa
Previous

52 mins ago

WSSS 121100Z VRB01KT 5000 HZ FEW018 SCT160 BKN270 28/24 Q1009 NOSIG
Observed
Nov-12 @ 11:00 UTC
Wind
  • Variable at 1 KTS
Visibility
5,000 meters
Flight Rules
MVFR
Conditions
Haze
Cloud Levels
  • Few at 1,800' AGL
  • Scattered at 16,000' AGL
  • Broken at 27,000' AGL
Temperature
28°C / 82°F
Dewpoint
24°C / 75°F
Heat Index
32°C / 89°F
Humidity
79%
Altimeter
29.79" Hg
Pressure
1008.92 hPa
Previous

1 hour ago

WSSS 121030Z 32004KT 290V010 5000 HZ FEW018 SCT160 BKN270 28/23 Q1009 NOSIG
Observed
Nov-12 @ 10:30 UTC
Wind
  • 320° at 4 KTS
Visibility
5,000 meters
Flight Rules
MVFR
Conditions
Haze
Cloud Levels
  • Few at 1,800' AGL
  • Scattered at 16,000' AGL
  • Broken at 27,000' AGL
Temperature
28°C / 82°F
Dewpoint
23°C / 73°F
Heat Index
31°C / 87°F
Humidity
74%
Altimeter
29.79" Hg
Pressure
1008.92 hPa